EDT,Max TemperatureF,Mean TemperatureF,Min TemperatureF,Max Dew PointF,MeanDew PointF,Min DewpointF,Max Humidity, Mean Humidity, Min Humidity, Max Sea Level PressureIn, Mean Sea Level PressureIn, Min Sea Level PressureIn, Max VisibilityMiles, Mean VisibilityMiles, Min VisibilityMiles, Max Wind SpeedMPH, Mean Wind SpeedMPH, Max Gust SpeedMPH,PrecipitationIn, CloudCover, Events, WindDirDegrees
2013-8-1,88,81,73,75,72,70,93,76,59,30.04,30.01,29.98,10,8,2,21,2,31,0.46,2,Rain,212
2013-8-2,92,82,71,73,71,67,93,69,44,30.04,30.00,29.96,10,8,4,15,3,18,0.00,2,,185
2013-8-3,92,83,74,76,73,71,94,73,52,30.07,30.04,30.00,10,8,2,17,5,24,0.15,2,Rain,267
2013-8-4,92,84,76,77,75,73,94,75,56,30.06,30.02,29.96,10,9,7,21,7,26,T,1,,261
2013-8-5,95,87,78,77,75,72,91,72,52,30.01,29.97,29.91,8,6,2,15,5,17,0.00,2,Thunderstorm,269
2013-8-6,94,84,74,76,74,72,94,75,56,30.00,29.95,29.91,7,5,1,18,4,24,0.24,3,Rain,84
2013-8-7,91,83,75,77,75,73,94,75,56,30.01,29.98,29.93,10,6,2,16,5,20,T,3,,91
2013-8-8,92,84,76,76,74,71,100,76,52,30.06,30.00,29.96,10,8,4,16,5,21,T,3,Rain-Thunderstorm,119
2013-8-9,90,82,73,78,74,70,100,76,52,30.10,30.06,30.00,10,8,1,13,4,18,0.33,3,Rain-Thunderstorm,111
2013-8-10,93,83,72,75,72,69,94,72,49,30.15,30.10,30.07,10,9,6,13,4,16,0.00,1,,145
2013-8-11,94,85,76,75,73,67,94,68,41,30.17,30.13,30.06,9,7,4,10,3,14,0.00,1,,153
2013-8-12,96,85,74,76,73,71,94,70,45,30.13,30.07,29.99,9,7,2,14,3,18,0.17,3,Rain-Thunderstorm,116
2013-8-13,94,84,74,75,73,71,94,72,49,30.04,30.00,29.92,10,8,6,13,4,16,0.00,1,,239
2013-8-14,94,84,74,76,73,69,94,72,49,30.01,29.95,29.88,10,9,5,17,4,21,0.01,1,,235
2013-8-15,92,83,73,76,72,67,94,73,52,30.04,29.98,29.93,10,9,6,14,5,20,0.00,1,,186
2013-8-16,87,80,73,75,73,70,94,82,70,30.08,30.03,29.98,10,8,0,21,2,26,0.55,3,Fog-Rain,208
2013-8-17,90,82,74,76,74,70,94,75,55,30.11,30.06,30.00,10,9,1,20,4,28,0.28,4,Rain-Thunderstorm,106
2013-8-18,90,81,72,77,73,71,94,79,64,30.13,30.09,30.04,10,6,0,18,4,24,0.10,5,Fog-Rain-Thunderstorm,88
2013-8-19,92,84,75,77,74,70,100,75,49,30.09,30.05,29.99,10,8,5,15,4,25,0.00,3,,120
2013-8-20,93,83,72,76,73,70,94,73,52,30.14,30.07,30.01,10,9,5,15,5,18,T,4,Thunderstorm,116
2013-8-21,90,81,72,78,73,70,100,78,56,30.16,30.12,30.07,10,9,0,17,5,22,0.00,3,Fog,76
2013-8-22,89,82,74,79,74,72,94,77,59,30.13,30.09,30.03,10,9,3,21,4,26,0.14,4,Rain,51
2013-8-23,87,80,73,77,73,69,100,83,65,30.06,30.03,29.99,10,7,2,18,2,25,0.34,4,Rain-Thunderstorm,71
2013-8-24,90,82,73,76,73,72,94,79,63,30.15,30.09,30.03,10,9,7,15,4,23,0.00,3,,60
2013-8-25,85,80,74,74,73,71,94,80,65,30.20,30.17,30.12,10,8,2,16,7,21,0.02,4,Rain,34
2013-8-26,89,81,72,73,71,70,100,78,55,30.18,30.14,30.06,10,8,3,17,7,22,T,5,,39
2013-8-27,89,80,71,72,70,67,93,72,50,30.10,30.06,30.01,10,9,5,13,5,17,T,4,,83
2013-8-28,91,80,69,71,68,65,97,72,47,30.07,30.03,29.98,10,9,8,9,3,12,0.00,3,,208
2013-8-29,92,82,71,73,70,66,93,69,44,30.04,30.00,29.93,10,10,8,14,4,20,0.00,1,,278
2013-8-30,93,84,75,74,71,67,94,68,41,29.99,29.94,29.88,10,8,4,15,4,20,0.00,1,Thunderstorm,277
2013-8-31,91,82,72,76,72,68,94,75,56,29.97,29.93,29.88,10,8,4,22,2,29,0.01,2,Rain,170